Bouake, Bouake Airport (DIBK)

NameBouake Airport
CityBouake
CountryCote d'Ivoire
ICAODIBK
IATABYK
Altitude375 m
CoordinatesGoogle Map
Live Air TrafficLiveATC.net
METARDIBK 251700Z 26006KT 9999 SCT016 34/21 Q1010 NOSIG
2020-04-25 17:00:00 Wind: West-Southwest (260°) 3.09 m/s - Visibility: > 10000 m - Temperature: 34 °C - Dew point: 21 °C - Humidity: 46.5% - Pressure: 1010 hPa
Statistics

The table below shows the detailed information of all flights to/from Bouake, Bouake Airport (DIBK).